Smithfield - 24 Hour Table
Date & TimeSolar
Radiation
(W/m²)
Wind
Speed
(mph)
Wind
Direction
(degrees)
Air
Temperature
(°F)
Relative
Humidity
(%)
Precipitation
(inches)
Max
Wind
Speed
(mph)
2024/07/14 19:00 167 4.0 347 89.4 25 0.00 8.5
2024/07/14 18:00 351 6.4 199 92.0 15 0.00 13.1
2024/07/14 17:00 592 6.9 204 92.5 16 0.00 17.1
2024/07/14 16:00 725 7.4 216 92.6 15 0.00 15.6
2024/07/14 15:00 878 7.8 213 92.1 19 0.00 17.8
2024/07/14 14:00 953 8.4 206 91.4 18 0.00 15.3
2024/07/14 13:00 990 7.8 231 90.6 18 0.00 15.6
2024/07/14 12:00 896 7.1 213 89.0 21 0.00 13.9
2024/07/14 11:00 859 6.4 186 87.0 22 0.00 18.9
2024/07/14 10:00 490 4.5 160 84.0 29 0.00 10.3
2024/07/14 09:00 501 2.4 55 82.0 30 0.00 4.6
2024/07/14 08:00 364 2.8 277 78.6 31 0.00 6.0
2024/07/14 07:00 81 4.2 59 76.1 38 0.00 6.7
2024/07/14 06:00 23 4.9 102 78.3 35 0.00 12.4
2024/07/14 05:00 0 5.7 93 80.4 25 0.00 10.3
2024/07/14 04:00 0 6.4 105 80.4 26 0.00 9.6
2024/07/14 03:00 0 6.9 108 80.4 25 0.00 10.3
2024/07/14 02:00 0 7.4 152 82.8 25 0.00 14.6
2024/07/14 01:00 0 8.0 167 83.9 22 0.00 16.4
2024/07/14 00:00 0 8.1 143 88.1 16 0.00 22.4
2024/07/13 23:00 0 5.9 60 81.1 14 0.00 35.3
2024/07/13 22:00 0 4.3 35 79.4 24 0.00 8.1
2024/07/13 21:00 0 4.8 55 80.0 24 0.00 6.3
2024/07/13 20:00 40 3.0 68 84.8 26 0.00 4.9